Ruth — 5BEG2 — position and weather

sailwx.info

Track history (hours):
 
Tides and Currents Weather Stations Pressure Air Temp Water Temp Dewpoint Dewpoint Depression Visibility Wind Speed Wind Dir Waves Ship Positions

Ruth

Last reported at 2018-Jan-20 13:26 UTC. Time now 2018-Jan-20 13:34 UTC.
Position N 61°08' E 021°26'.

Length 134 m; draft 8.1 m.

Type: Ship (hazmat cat A). MMSI: 212613000.

Date/timePositionNaut miles runAvg speedWind from/ knotsBaromVisibWave heightAir tempDewpointWater temp
2018-Jan-20 13:26N 61°08' E 021°26'0 0.0
2018-Jan-20 12:55N 61°08' E 021°26'0 0.0
2018-Jan-20 12:25N 61°08' E 021°26'0 0.0
2018-Jan-20 11:58N 61°08' E 021°26'0 0.0
2018-Jan-20 11:18N 61°08' E 021°26'0 0.0
2018-Jan-20 10:54N 61°08' E 021°26'0 0.0
2018-Jan-20 10:27N 61°08' E 021°26'0 0.0
2018-Jan-20 10:00N 61°08' E 021°26'0 0.0
2018-Jan-20 09:27N 61°08' E 021°26'0 0.0
2018-Jan-20 08:59N 61°08' E 021°26'0 0.0
2018-Jan-20 08:30N 61°08' E 021°26'1 1.2
2018-Jan-20 08:00N 61°07' E 021°25'611.4
2018-Jan-20 07:31N 61°07' E 021°13'510.3
2018-Jan-20 07:00N 61°08' E 021°03'7015.8
2018-Jan-20 02:37N 60°30' E 019°04'215.4
2018-Jan-20 02:29N 60°28' E 019°03'816.2
2018-Jan-20 02:00N 60°20' E 019°01'815.6
2018-Jan-20 01:30N 60°12' E 019°05'816.0
2018-Jan-20 01:01N 60°06' E 019°15'916.4
2018-Jan-20 00:29N 59°60' E 019°26'816.3
2018-Jan-19 23:58N 59°53' E 019°37'716.0
2018-Jan-19 23:31N 59°48' E 019°46'3615.1
2018-Jan-19 21:06N 59°37' E 020°55'216.2
2018-Jan-19 21:00N 59°37' E 020°59'816.6
2018-Jan-19 20:30N 59°37' E 021°15'816.6
2018-Jan-19 20:01N 59°37' E 021°31'916.7
2018-Jan-19 19:30N 59°37' E 021°48'917.5
2018-Jan-19 19:00N 59°37' E 022°05'918.0
2018-Jan-19 18:31N 59°37' E 022°23'1718.0
2018-Jan-19 17:33N 59°37' E 022°57'118.0
2018-Jan-19 17:30N 59°37' E 022°59'918.0
2018-Jan-19 17:00N 59°39' E 023°16'917.9
2018-Jan-19 16:30N 59°41' E 023°33'918.0
2018-Jan-19 16:01N 59°44' E 023°50'918.1
2018-Jan-19 15:30N 59°46' E 024°08'917.6
2018-Jan-19 15:00N 59°48' E 024°25'1217.6
2018-Jan-19 14:21N 59°53' E 024°46'45 5.2
2018-Jan-19 05:38N 59°59' E 026°15'215.8
2018-Jan-19 05:29N 59°60' E 026°20'917.0
2018-Jan-19 04:57N 60°01' E 026°37'818.0
2018-Jan-19 04:31N 60°00' E 026°53'918.1
2018-Jan-19 03:59N 60°02' E 027°12'816.4
2018-Jan-19 03:29N 60°06' E 027°26'919.3
2018-Jan-19 03:00N 60°11' E 027°42'815.2
2018-Jan-19 02:31N 60°11' E 027°57'917.9
2018-Jan-19 02:01N 60°08' E 028°15'917.9
2018-Jan-19 01:31N 60°04' E 028°30'917.7
2018-Jan-19 01:00N 60°03' E 028°48'1017.8
2018-Jan-19 00:28N 60°02' E 029°07'1615.0
2018-Jan-18 23:25N 60°00' E 029°38'4 9.7
2018-Jan-18 23:00N 59°59' E 029°46'5 9.2
2018-Jan-18 22:30N 59°57' E 029°54'4 7.9
2018-Jan-18 22:00N 59°55' E 030°01'4 7.9
2018-Jan-18 21:30N 59°54' E 030°08'2 4.8
2018-Jan-18 21:00N 59°52' E 030°12'0 0.0
2018-Jan-18 20:28N 59°52' E 030°12'0 0.0
2018-Jan-18 19:58N 59°52' E 030°12'0 0.0
2018-Jan-18 19:22N 59°52' E 030°12'0 0.0
2018-Jan-18 18:58N 59°52' E 030°12'0 0.0
2018-Jan-18 18:30N 59°52' E 030°12'0 0.0
2018-Jan-18 18:00N 59°52' E 030°12'0 0.0
2018-Jan-18 17:30N 59°52' E 030°12'0 0.0
2018-Jan-18 17:00N 59°52' E 030°12'0 0.0
2018-Jan-18 16:29N 59°52' E 030°12'0 0.0
2018-Jan-18 15:59N 59°52' E 030°12'0 0.0
2018-Jan-18 15:30N 59°52' E 030°12'0 0.0
2018-Jan-18 15:00N 59°52' E 030°12'0 0.6
2018-Jan-18 14:30N 59°53' E 030°12'3 5.0
2018-Jan-18 14:00N 59°54' E 030°07'611.2
2018-Jan-18 13:30N 59°56' E 029°57'611.9
2018-Jan-18 12:59N 59°59' E 029°46'1 2.7
2018-Jan-18 12:30N 59°58' E 029°44'0 0.0
2018-Jan-18 12:00N 59°58' E 029°44'2 3.1
2018-Jan-18 11:30N 59°56' E 029°42'0 0.6
2018-Jan-18 11:00N 59°56' E 029°42'0 0.0
2018-Jan-18 10:30N 59°56' E 029°42'0 0.0
2018-Jan-18 10:00N 59°56' E 029°42'0 0.0
2018-Jan-18 05:34N 59°56' E 029°42'0 0.0
2018-Jan-18 05:25N 59°56' E 029°42'0 0.0
2018-Jan-18 04:54N 59°56' E 029°42'0 0.0
2018-Jan-18 04:21N 59°56' E 029°42'0 0.0
2018-Jan-18 04:00N 59°56' E 029°42'0 0.0
2018-Jan-18 03:25N 59°56' E 029°42'0 0.0
2018-Jan-18 03:00N 59°56' E 029°42'0 0.0
2018-Jan-18 02:17N 59°56' E 029°42'0 0.0
2018-Jan-18 01:59N 59°56' E 029°42'0 0.0
2018-Jan-18 01:29N 59°56' E 029°42'0 0.0
2018-Jan-18 00:56N 59°56' E 029°42'0 0.0
2018-Jan-17 23:58N 59°56' E 029°42'0 0.0
2018-Jan-17 23:52N 59°56' E 029°42'  
2018-Jan-12 13:14N 54°28' E 010°15'412.5
2018-Jan-12 12:56N 54°31' E 010°18'2 3.7
2018-Jan-12 12:20N 54°33' E 010°20'0 0.0
2018-Jan-12 11:59N 54°33' E 010°20'0 0.0
2018-Jan-12 07:21N 54°33' E 010°20'0 0.0
2018-Jan-12 01:06N 54°33' E 010°20'5 0.8
2018-Jan-11 19:14N 54°34' E 010°28'413.5
2018-Jan-11 18:58N 54°34' E 010°34'613.2
2018-Jan-11 18:30N 54°35' E 010°45'714.3
2018-Jan-11 18:01N 54°36' E 010°57'714.8
2018-Jan-11 17:30N 54°36' E 011°10'714.2
2018-Jan-11 17:01N 54°33' E 011°21'714.1
2018-Jan-11 16:31N 54°30' E 011°32'713.8
2018-Jan-11 16:01N 54°28' E 011°43'1013.5
2018-Jan-11 15:16N 54°27' E 011°60'413.6
2018-Jan-11 15:00N 54°27' E 012°06'611.8
2018-Jan-11 14:30N 54°32' E 012°12'7513.2
2018-Jan-11 08:50N 55°07' E 014°07'413.7
2018-Jan-11 08:30N 55°10' E 014°13'713.8
2018-Jan-11 08:00N 55°15' E 014°21'813.8
2018-Jan-11 07:27N 55°21' E 014°29'614.1
2018-Jan-11 07:00N 55°26' E 014°36'714.3
2018-Jan-11 06:31N 55°30' E 014°46'713.9
2018-Jan-11 05:59N 55°34' E 014°58'713.9
2018-Jan-11 05:30N 55°37' E 015°08'713.8
2018-Jan-11 05:00N 55°40' E 015°18'713.7
2018-Jan-11 04:30N 55°44' E 015°29'713.7
2018-Jan-11 04:00N 55°48' E 015°39'713.7
2018-Jan-11 03:30N 55°51' E 015°49'713.7
2018-Jan-11 03:00N 55°55' E 015°60'713.7
2018-Jan-11 02:30N 55°58' E 016°10'713.6
2018-Jan-11 02:00N 56°02' E 016°21'713.7
2018-Jan-11 01:30N 56°05' E 016°31'713.6
2018-Jan-11 01:00N 56°09' E 016°42'612.6
2018-Jan-11 00:30N 56°14' E 016°48'713.2
2018-Jan-11 00:00N 56°20' E 016°52'10913.0
2018-Jan-10 15:35N 57°57' E 018°27'113.7
2018-Jan-10 15:30N 57°58' E 018°29'713.5
2018-Jan-10 15:00N 58°02' E 018°37'713.6
2018-Jan-10 14:30N 58°06' E 018°48'713.4
2018-Jan-10 14:00N 58°11' E 018°58'713.5
2018-Jan-10 13:29N 58°15' E 019°08'  
Track history (hours):
 
Tides and Currents Weather Stations Pressure Air Temp Water Temp Dewpoint Dewpoint Depression Visibility Wind Speed Wind Dir Waves Ship Positions

Ruth

Last reported at 2018-Jan-20 13:26 UTC. Time now 2018-Jan-20 13:34 UTC.
Position N 61°08' E 021°26'.

Length 134 m; draft 8.1 m.

Type: Ship (hazmat cat A). MMSI: 212613000.

Date/timePositionNaut miles runAvg speedWind from/ knotsBaromVisibWave heightAir tempDewpointWater temp
2018-Jan-20 13:26N 61°08' E 021°26'0 0.0
2018-Jan-20 12:55N 61°08' E 021°26'0 0.0
2018-Jan-20 12:25N 61°08' E 021°26'0 0.0
2018-Jan-20 11:58N 61°08' E 021°26'0 0.0
2018-Jan-20 11:18N 61°08' E 021°26'0 0.0
2018-Jan-20 10:54N 61°08' E 021°26'0 0.0
2018-Jan-20 10:27N 61°08' E 021°26'0 0.0
2018-Jan-20 10:00N 61°08' E 021°26'0 0.0
2018-Jan-20 09:27N 61°08' E 021°26'0 0.0
2018-Jan-20 08:59N 61°08' E 021°26'0 0.0
2018-Jan-20 08:30N 61°08' E 021°26'1 1.2
2018-Jan-20 08:00N 61°07' E 021°25'611.4
2018-Jan-20 07:31N 61°07' E 021°13'510.3
2018-Jan-20 07:00N 61°08' E 021°03'7015.8
2018-Jan-20 02:37N 60°30' E 019°04'215.4
2018-Jan-20 02:29N 60°28' E 019°03'816.2
2018-Jan-20 02:00N 60°20' E 019°01'815.6
2018-Jan-20 01:30N 60°12' E 019°05'816.0
2018-Jan-20 01:01N 60°06' E 019°15'916.4
2018-Jan-20 00:29N 59°60' E 019°26'816.3
2018-Jan-19 23:58N 59°53' E 019°37'716.0
2018-Jan-19 23:31N 59°48' E 019°46'3615.1
2018-Jan-19 21:06N 59°37' E 020°55'216.2
2018-Jan-19 21:00N 59°37' E 020°59'816.6
2018-Jan-19 20:30N 59°37' E 021°15'816.6
2018-Jan-19 20:01N 59°37' E 021°31'916.7
2018-Jan-19 19:30N 59°37' E 021°48'917.5
2018-Jan-19 19:00N 59°37' E 022°05'918.0
2018-Jan-19 18:31N 59°37' E 022°23'1718.0
2018-Jan-19 17:33N 59°37' E 022°57'118.0
2018-Jan-19 17:30N 59°37' E 022°59'918.0
2018-Jan-19 17:00N 59°39' E 023°16'917.9
2018-Jan-19 16:30N 59°41' E 023°33'918.0
2018-Jan-19 16:01N 59°44' E 023°50'918.1
2018-Jan-19 15:30N 59°46' E 024°08'917.6
2018-Jan-19 15:00N 59°48' E 024°25'1217.6
2018-Jan-19 14:21N 59°53' E 024°46'45 5.2
2018-Jan-19 05:38N 59°59' E 026°15'215.8
2018-Jan-19 05:29N 59°60' E 026°20'917.0
2018-Jan-19 04:57N 60°01' E 026°37'818.0
2018-Jan-19 04:31N 60°00' E 026°53'918.1
2018-Jan-19 03:59N 60°02' E 027°12'816.4
2018-Jan-19 03:29N 60°06' E 027°26'919.3
2018-Jan-19 03:00N 60°11' E 027°42'815.2
2018-Jan-19 02:31N 60°11' E 027°57'917.9
2018-Jan-19 02:01N 60°08' E 028°15'917.9
2018-Jan-19 01:31N 60°04' E 028°30'917.7
2018-Jan-19 01:00N 60°03' E 028°48'1017.8
2018-Jan-19 00:28N 60°02' E 029°07'1615.0
2018-Jan-18 23:25N 60°00' E 029°38'4 9.7
2018-Jan-18 23:00N 59°59' E 029°46'5 9.2
2018-Jan-18 22:30N 59°57' E 029°54'4 7.9
2018-Jan-18 22:00N 59°55' E 030°01'4 7.9
2018-Jan-18 21:30N 59°54' E 030°08'2 4.8
2018-Jan-18 21:00N 59°52' E 030°12'0 0.0
2018-Jan-18 20:28N 59°52' E 030°12'0 0.0
2018-Jan-18 19:58N 59°52' E 030°12'0 0.0
2018-Jan-18 19:22N 59°52' E 030°12'0 0.0
2018-Jan-18 18:58N 59°52' E 030°12'0 0.0
2018-Jan-18 18:30N 59°52' E 030°12'0 0.0
2018-Jan-18 18:00N 59°52' E 030°12'0 0.0
2018-Jan-18 17:30N 59°52' E 030°12'0 0.0
2018-Jan-18 17:00N 59°52' E 030°12'0 0.0
2018-Jan-18 16:29N 59°52' E 030°12'0 0.0
2018-Jan-18 15:59N 59°52' E 030°12'0 0.0
2018-Jan-18 15:30N 59°52' E 030°12'0 0.0
2018-Jan-18 15:00N 59°52' E 030°12'0 0.6
2018-Jan-18 14:30N 59°53' E 030°12'3 5.0
2018-Jan-18 14:00N 59°54' E 030°07'611.2
2018-Jan-18 13:30N 59°56' E 029°57'611.9
2018-Jan-18 12:59N 59°59' E 029°46'1 2.7
2018-Jan-18 12:30N 59°58' E 029°44'0 0.0
2018-Jan-18 12:00N 59°58' E 029°44'2 3.1
2018-Jan-18 11:30N 59°56' E 029°42'0 0.6
2018-Jan-18 11:00N 59°56' E 029°42'0 0.0
2018-Jan-18 10:30N 59°56' E 029°42'0 0.0
2018-Jan-18 10:00N 59°56' E 029°42'0 0.0
2018-Jan-18 05:34N 59°56' E 029°42'0 0.0
2018-Jan-18 05:25N 59°56' E 029°42'0 0.0
2018-Jan-18 04:54N 59°56' E 029°42'0 0.0
2018-Jan-18 04:21N 59°56' E 029°42'0 0.0
2018-Jan-18 04:00N 59°56' E 029°42'0 0.0
2018-Jan-18 03:25N 59°56' E 029°42'0 0.0
2018-Jan-18 03:00N 59°56' E 029°42'0 0.0
2018-Jan-18 02:17N 59°56' E 029°42'0 0.0
2018-Jan-18 01:59N 59°56' E 029°42'0 0.0
2018-Jan-18 01:29N 59°56' E 029°42'0 0.0
2018-Jan-18 00:56N 59°56' E 029°42'0 0.0
2018-Jan-17 23:58N 59°56' E 029°42'0 0.0
2018-Jan-17 23:52N 59°56' E 029°42'  
2018-Jan-12 13:14N 54°28' E 010°15'412.5
2018-Jan-12 12:56N 54°31' E 010°18'2 3.7
2018-Jan-12 12:20N 54°33' E 010°20'0 0.0
2018-Jan-12 11:59N 54°33' E 010°20'0 0.0
2018-Jan-12 07:21N 54°33' E 010°20'0 0.0
2018-Jan-12 01:06N 54°33' E 010°20'5 0.8
2018-Jan-11 19:14N 54°34' E 010°28'413.5
2018-Jan-11 18:58N 54°34' E 010°34'613.2
2018-Jan-11 18:30N 54°35' E 010°45'714.3
2018-Jan-11 18:01N 54°36' E 010°57'714.8
2018-Jan-11 17:30N 54°36' E 011°10'714.2
2018-Jan-11 17:01N 54°33' E 011°21'714.1
2018-Jan-11 16:31N 54°30' E 011°32'713.8
2018-Jan-11 16:01N 54°28' E 011°43'1013.5
2018-Jan-11 15:16N 54°27' E 011°60'413.6
2018-Jan-11 15:00N 54°27' E 012°06'611.8
2018-Jan-11 14:30N 54°32' E 012°12'7513.2
2018-Jan-11 08:50N 55°07' E 014°07'413.7
2018-Jan-11 08:30N 55°10' E 014°13'713.8
2018-Jan-11 08:00N 55°15' E 014°21'813.8
2018-Jan-11 07:27N 55°21' E 014°29'614.1
2018-Jan-11 07:00N 55°26' E 014°36'714.3
2018-Jan-11 06:31N 55°30' E 014°46'713.9
2018-Jan-11 05:59N 55°34' E 014°58'713.9
2018-Jan-11 05:30N 55°37' E 015°08'713.8
2018-Jan-11 05:00N 55°40' E 015°18'713.7
2018-Jan-11 04:30N 55°44' E 015°29'713.7
2018-Jan-11 04:00N 55°48' E 015°39'713.7
2018-Jan-11 03:30N 55°51' E 015°49'713.7
2018-Jan-11 03:00N 55°55' E 015°60'713.7
2018-Jan-11 02:30N 55°58' E 016°10'713.6
2018-Jan-11 02:00N 56°02' E 016°21'713.7
2018-Jan-11 01:30N 56°05' E 016°31'713.6
2018-Jan-11 01:00N 56°09' E 016°42'612.6
2018-Jan-11 00:30N 56°14' E 016°48'713.2
2018-Jan-11 00:00N 56°20' E 016°52'10913.0
2018-Jan-10 15:35N 57°57' E 018°27'113.7
2018-Jan-10 15:30N 57°58' E 018°29'713.5
2018-Jan-10 15:00N 58°02' E 018°37'713.6
2018-Jan-10 14:30N 58°06' E 018°48'713.4
2018-Jan-10 14:00N 58°11' E 018°58'713.5
2018-Jan-10 13:29N 58°15' E 019°08'  

Dump ship's entire track history